Nearby METAR Reports

 

KSEE - San Diego/Santee, California, USA
Distance from station: E 4mi, 6km
Updated: 08/24/2019 12:55am
Clear
Clear
 Wind from WNW
Wind: WNW 3 mph , 6 km/h
Temperature: 66°F , 19°C
Dew Point: 61°F , 16°C
Humidity: 83%
Barometer: 29.91 inHg , 1012.9 hPa
Clouds: Clear
Visibility: 10 miles , 16 km
2019/08/24 07:55 KSEE 240755Z AUTO 29003KT 10SM CLR 19/16 A2991 RMK AO2
KMYF - San Diego/Mntgmy, California, USA
Distance from station: W 6mi, 10km
Updated: 08/24/2019 12:53am
Few Clouds
Few Clouds
 Wind from calm
Wind: Calm
Temperature: 66°F , 19°C
Dew Point: 63°F , 17°C
Humidity: 88%
Barometer: 29.92 inHg , 1013.2 hPa
Clouds: Few Clouds
Visibility: 10 miles , 16 km
Cloud details: Few Clouds 1100 ft
2019/08/24 07:53 KMYF 240753Z AUTO 00000KT 10SM FEW011 19/17 A2992 RMK AO2 SLP125 T01890167 402500172
 
KNKX - Miramar Nas/San, California, USA
Distance from station: WNW 7mi, 11km
Updated: 08/24/2019 12:55am
Mostly cloudy
Mostly cloudy
 Wind from calm
Wind: Calm
Temperature: 66°F , 19°C
Dew Point: 59°F , 15°C
Humidity: 78%
Barometer: 29.91 inHg , 1012.9 hPa
Clouds: Mostly cloudy
Visibility: 10 miles , 16 km
Cloud details: Mostly cloudy 1100 ft
2019/08/24 07:55 KNKX 240755Z 00000KT 10SM BKN011 19/15 A2991 RMK AO2 SLP122 T01890150 402830189
KSAN - San Diego, California, USA
Distance from station: WSW 11mi, 17km
Updated: 08/24/2019 12:51am
Mostly cloudy
Mostly cloudy
 Wind from calm
Wind: Calm
Temperature: 70°F , 21°C
Dew Point: 64°F , 18°C
Humidity: 83%
Barometer: 29.92 inHg , 1013.2 hPa
Clouds: Mostly cloudy
Visibility: 10 miles , 16 km
Cloud details: Mostly cloudy 1300 ft
2019/08/24 07:51 KSAN 240751Z 00000KT 10SM BKN013 21/18 A2992 RMK AO2 SLP131 T02110178 402390189
 
KNZY - North Island Nas, California, USA
Distance from station: SW 13mi, 22km
Updated: 08/24/2019 12:52am
Overcast
Overcast
 Wind from calm
Wind: Calm
Temperature: 68°F , 20°C
Dew Point: 63°F , 17°C
Humidity: 83%
Barometer: 29.90 inHg , 1012.5 hPa
Clouds: Overcast
Visibility: 10 miles , 16 km
Cloud details: Overcast 1200 ft
2019/08/24 07:52 KNZY 240752Z AUTO 00000KT 10SM OVC012 20/17 A2990 RMK AO2 SLP125 T02000172 402280183
KRNM - Ramona, California, USA
Distance from station: NNE 16mi, 26km
Updated: 08/24/2019 12:53am
Clear
Clear
 Wind from calm
Wind: Calm
Temperature: 61°F , 16°C
Dew Point: 55°F , 13°C
Humidity: 83%
Barometer: 29.93 inHg , 1013.5 hPa
Clouds: Clear
Visibility: 10 miles , 16 km
2019/08/24 07:53 KRNM 240753Z AUTO 00000KT 10SM CLR 16/13 A2993 RMK AO2 SLP122 T01560133 403060139
 
KSDM - San Diego/Brown, California, USA
Distance from station: S 16mi, 26km
Updated: 08/24/2019 12:53am
Clear
Clear
 Wind from calm
Wind: Calm
Temperature: 64°F , 18°C
Dew Point: 61°F , 16°C
Humidity: 88%
Barometer: 29.91 inHg , 1012.9 hPa
Clouds: Clear
Visibility: 10 miles , 16 km
2019/08/24 07:53 KSDM 240753Z AUTO 00000KT 10SM CLR 18/16 A2991 RMK AO2 SLP123 T01830156 402670172
KNRS - Imperial Beach, California, USA
Distance from station: SSW 18mi, 29km
Updated: 08/24/2019 12:56am
Mostly cloudy
Mostly cloudy
 
Barometer: 29.91 inHg , 1012.9 hPa
Clouds: Mostly cloudy
Visibility: 9 miles , 14 km
Cloud details: Mostly cloudy 1100 ft
2019/08/24 07:56 KNRS 240756Z AUTO 9SM BKN011 A2991 RMK AO2 SLP129 $
 
MMTJ - Tijuana Intl Arp, Mexico
Distance from station: S 20mi, 32km
Updated: 08/24/2019 12:48am
Clear
Clear
 Wind from NNW
Wind: NNW 6 mph , 9 km/h
Temperature: 64°F , 18°C
Dew Point: 63°F , 17°C
Humidity: 94%
Barometer: 29.93 inHg , 1013.5 hPa
Clouds: Clear
Visibility: 8 miles , 13 km
2019/08/24 07:48 MMTJ 240748Z 33005KT 8SM SKC 18/17 A2993
KCRQ - Carlsbad, California, USA
Distance from station: NW 26mi, 43km
Updated: 08/24/2019 12:53am
Overcast
Overcast
 Wind from calm
Wind: Calm
Temperature: 68°F , 20°C
Dew Point: 63°F , 17°C
Humidity: 83%
Barometer: 29.91 inHg , 1012.9 hPa
Clouds: Overcast
Visibility: 10 miles , 16 km
Cloud details: Overcast 1000 ft
2019/08/24 07:53 KCRQ 240753Z AUTO 00000KT 10SM OVC010 20/17 A2991 RMK AO2 SLP124 T02000172 402330189
 
KOKB - Oceanside, California, USA
Distance from station: NW 33mi, 54km
Updated: 08/24/2019 12:52am
Mist, Clear
Mist, Clear
 Wind from calm
Wind: Calm
Temperature: 63°F , 17°C
Dew Point: 61°F , 16°C
Humidity: 94%
Barometer: 29.90 inHg , 1012.5 hPa
Summary: Mist
Clouds: Clear
Visibility: 6 miles , 10 km
2019/08/24 07:52 KOKB 240752Z AUTO 00000KT 6SM BR CLR 17/16 A2990 RMK AO2 SLP126 T01720156 402500167
KCZZ - Campo, California, USA
Distance from station: ESE 35mi, 56km
Updated: 08/24/2019 12:52am

 Wind from NE
Wind: NE 6 mph , 9 km/h
Temperature: 61°F , 16°C
Dew Point: 48°F , 9°C
Humidity: 63%
Barometer: 29.96 inHg , 1014.6 hPa
2019/08/24 07:52 KCZZ 240752Z AUTO 05005KT 16/09 A2996 RMK AO1 SLP110 T01610094 403390078
 
KNFG - Camp Pendleton, California, USA
Distance from station: NNW 37mi, 59km
Updated: 08/24/2019 12:55am
Clear
Clear
 Wind from ENE
Wind: ENE 5 mph , 7 km/h
Temperature: 63°F , 17°C
Dew Point: 57°F , 14°C
Humidity: 83%
Barometer: 29.91 inHg , 1012.9 hPa
Clouds: Clear
Visibility: 10 miles , 16 km
2019/08/24 07:55 KNFG 240755Z AUTO 06004KT 10SM CLR 17/14 A2991 RMK AO2 SLP127 T01670139 402500156
KRIV - Riverside/March, California, USA
Distance from station: N 74mi, 119km
Updated: 08/24/2019 12:58am
Clear
Clear
 Wind from W
Wind: W 3 mph , 6 km/h
Temperature: 64°F , 18°C
Dew Point: 63°F , 17°C
Humidity: 94%
Barometer: 29.94 inHg , 1013.9 hPa
Clouds: Clear
Visibility: 10 miles , 16 km
2019/08/24 07:58 KRIV 240758Z AUTO 27003KT 10SM CLR 18/17 A2994 RMK AO2 SLP126 T01820172 403250129
 
KTRM - Thermal/Palm Spg, California, USA
Distance from station: NE 75mi, 121km
Updated: 08/24/2019 12:52am
Clear
Clear
 Wind from SSE
Wind: SSE 8 mph , 13 km/h
Temperature: 90°F , 32°C
Heat Index: 96°F , 36°C
Dew Point: 70°F , 21°C
Humidity: 52%
Barometer: 29.81 inHg , 1009.5 hPa
Clouds: Clear
Visibility: 10 miles , 16 km
2019/08/24 07:52 KTRM 240752Z AUTO 15007KT 10SM CLR 32/21 A2981 RMK AO2 SLP097 T03170206 404170233
KPSP - Palm Springs, California, USA
Distance from station: NNE 76mi, 122km
Updated: 08/24/2019 12:53am
Clear
Clear
 Wind from NNW
Wind: NNW 8 mph , 13 km/h
Temperature: 88°F , 31°C
Dew Point: 52°F , 11°C
Humidity: 29%
Barometer: 29.87 inHg , 1011.5 hPa
Clouds: Clear
Visibility: 10 miles , 16 km
2019/08/24 07:53 KPSP 240753Z AUTO 34007KT 10SM CLR 31/11 A2987 RMK AO2 SLP110 T03110111 404060239
 
KSNA - Costa Mesa, California, USA
Distance from station: NW 76mi, 123km
Updated: 08/24/2019 12:53am
Clear
Clear
 Wind from calm
Wind: Calm
Temperature: 70°F , 21°C
Dew Point: 61°F , 16°C
Humidity: 73%
Barometer: 29.91 inHg , 1012.9 hPa
Clouds: Clear
Visibility: 10 miles , 16 km
2019/08/24 07:53 KSNA 240753Z AUTO 00000KT 10SM CLR 21/16 A2991 RMK AO2 SLP127 T02060161 402560194
KNJK - El Centro Naf, California, USA
Distance from station: E 79mi, 127km
Updated: 08/24/2019 12:56am
Clear
Clear
 Wind from SE
Wind: SE 13 mph , 20 km/h
Temperature: 88°F , 31°C
Heat Index: 98°F , 37°C
Dew Point: 75°F , 24°C
Humidity: 66%
Barometer: 29.80 inHg , 1009.1 hPa
Clouds: Clear
Visibility: 10 miles , 16 km
2019/08/24 07:56 KNJK 240756Z AUTO 13011KT 10SM CLR 31/24 A2980 RMK AO2 SLP106 T03060239 404060239
 
KAJO - Corona Muni, California, USA
Distance from station: NNW 82mi, 132km
Updated: 08/24/2019 12:56am
Clear
Clear
 Wind from WSW
Wind: WSW 6 mph , 9 km/h
Temperature: 66°F , 19°C
Dew Point: 61°F , 16°C
Humidity: 83%
Barometer: 29.93 inHg , 1013.5 hPa
Clouds: Clear
Visibility: 10 miles , 16 km
2019/08/24 07:56 KAJO 240756Z AUTO 25005KT 10SM CLR 19/16 A2993 RMK AO2 SLP127 T01940161 403110133